sensor_id;sensor_type;location;lat;lon;timestamp;P1;durP1;ratioP1;P2;durP2;ratioP2
32613;SDS011;19031;51.400;6.770;2023-03-31T00:00:28;5.72;;;0.95;;
32613;SDS011;19031;51.400;6.770;2023-03-31T00:02:55;7.18;;;0.85;;
32613;SDS011;19031;51.400;6.770;2023-03-31T00:05:21;3.15;;;0.80;;
32613;SDS011;19031;51.400;6.770;2023-03-31T00:07:51;4.93;;;1.33;;
32613;SDS011;19031;51.400;6.770;2023-03-31T00:10:25;2.65;;;0.50;;
32613;SDS011;19031;51.400;6.770;2023-03-31T00:12:57;1.27;;;0.50;;
32613;SDS011;19031;51.400;6.770;2023-03-31T00:15:23;0.70;;;0.30;;
32613;SDS011;19031;51.400;6.770;2023-03-31T00:17:49;2.03;;;0.50;;
32613;SDS011;19031;51.400;6.770;2023-03-31T00:20:18;1.15;;;0.55;;
32613;SDS011;19031;51.400;6.770;2023-03-31T00:22:44;4.65;;;0.40;;
32613;SDS011;19031;51.400;6.770;2023-03-31T00:25:13;1.95;;;0.73;;
32613;SDS011;19031;51.400;6.770;2023-03-31T00:27:43;0.93;;;0.40;;
32613;SDS011;19031;51.400;6.770;2023-03-31T00:30:12;3.80;;;0.50;;
32613;SDS011;19031;51.400;6.770;2023-03-31T00:32:38;3.35;;;1.02;;
32613;SDS011;19031;51.400;6.770;2023-03-31T00:35:07;2.42;;;0.65;;
32613;SDS011;19031;51.400;6.770;2023-03-31T00:37:33;1.45;;;0.60;;
32613;SDS011;19031;51.400;6.770;2023-03-31T00:39:59;4.57;;;0.40;;
32613;SDS011;19031;51.400;6.770;2023-03-31T00:42:25;2.22;;;0.73;;
32613;SDS011;19031;51.400;6.770;2023-03-31T00:47:43;0.38;;;0.10;;
32613;SDS011;19031;51.400;6.770;2023-03-31T00:50:22;2.90;;;0.30;;
32613;SDS011;19031;51.400;6.770;2023-03-31T00:53:11;1.77;;;0.55;;
32613;SDS011;19031;51.400;6.770;2023-03-31T00:55:44;2.88;;;0.40;;
32613;SDS011;19031;51.400;6.770;2023-03-31T00:58:13;2.33;;;0.77;;
32613;SDS011;19031;51.400;6.770;2023-03-31T01:00:44;2.67;;;0.57;;
32613;SDS011;19031;51.400;6.770;2023-03-31T01:03:18;2.30;;;0.57;;
32613;SDS011;19031;51.400;6.770;2023-03-31T01:05:56;1.63;;;0.52;;
32613;SDS011;19031;51.400;6.770;2023-03-31T01:08:28;1.65;;;0.40;;
32613;SDS011;19031;51.400;6.770;2023-03-31T01:10:57;2.20;;;0.65;;
32613;SDS011;19031;51.400;6.770;2023-03-31T01:13:25;4.80;;;0.98;;
32613;SDS011;19031;51.400;6.770;2023-03-31T01:15:52;5.43;;;0.47;;
32613;SDS011;19031;51.400;6.770;2023-03-31T01:18:18;2.60;;;0.43;;
32613;SDS011;19031;51.400;6.770;2023-03-31T01:28:53;1.83;;;0.50;;
32613;SDS011;19031;51.400;6.770;2023-03-31T01:31:49;4.45;;;0.60;;
32613;SDS011;19031;51.400;6.770;2023-03-31T01:34:52;1.13;;;0.50;;
32613;SDS011;19031;51.400;6.770;2023-03-31T01:42:53;2.15;;;0.65;;
32613;SDS011;19031;51.400;6.770;2023-03-31T01:45:31;5.00;;;0.80;;
32613;SDS011;19031;51.400;6.770;2023-03-31T01:48:06;0.77;;;0.63;;
32613;SDS011;19031;51.400;6.770;2023-03-31T01:53:14;3.10;;;1.00;;
32613;SDS011;19031;51.400;6.770;2023-03-31T02:00:54;4.82;;;0.40;;
32613;SDS011;19031;51.400;6.770;2023-03-31T02:03:27;6.43;;;0.65;;
32613;SDS011;19031;51.400;6.770;2023-03-31T02:05:58;6.40;;;0.88;;
32613;SDS011;19031;51.400;6.770;2023-03-31T02:11:18;2.72;;;0.63;;
32613;SDS011;19031;51.400;6.770;2023-03-31T02:13:45;2.08;;;0.63;;
32613;SDS011;19031;51.400;6.770;2023-03-31T02:16:15;3.42;;;0.60;;
32613;SDS011;19031;51.400;6.770;2023-03-31T02:18:45;4.00;;;1.13;;
32613;SDS011;19031;51.400;6.770;2023-03-31T02:21:14;3.17;;;0.63;;
32613;SDS011;19031;51.400;6.770;2023-03-31T02:23:40;2.78;;;0.73;;
32613;SDS011;19031;51.400;6.770;2023-03-31T02:28:42;1.27;;;0.40;;
32613;SDS011;19031;51.400;6.770;2023-03-31T02:31:20;4.13;;;0.50;;
32613;SDS011;19031;51.400;6.770;2023-03-31T02:33:54;1.75;;;0.75;;
32613;SDS011;19031;51.400;6.770;2023-03-31T02:36:20;4.55;;;1.15;;
32613;SDS011;19031;51.400;6.770;2023-03-31T02:38:51;8.20;;;1.30;;
32613;SDS011;19031;51.400;6.770;2023-03-31T02:41:21;4.43;;;0.60;;
32613;SDS011;19031;51.400;6.770;2023-03-31T02:43:47;2.80;;;0.55;;
32613;SDS011;19031;51.400;6.770;2023-03-31T02:46:12;6.63;;;0.40;;
32613;SDS011;19031;51.400;6.770;2023-03-31T02:48:39;0.73;;;0.25;;
32613;SDS011;19031;51.400;6.770;2023-03-31T02:51:17;1.65;;;0.60;;
32613;SDS011;19031;51.400;6.770;2023-03-31T03:18:55;6.32;;;0.80;;
32613;SDS011;19031;51.400;6.770;2023-03-31T03:21:25;5.35;;;0.88;;
32613;SDS011;19031;51.400;6.770;2023-03-31T03:23:51;7.85;;;0.70;;
32613;SDS011;19031;51.400;6.770;2023-03-31T03:26:19;3.22;;;0.63;;
32613;SDS011;19031;51.400;6.770;2023-03-31T03:28:47;6.90;;;1.23;;
32613;SDS011;19031;51.400;6.770;2023-03-31T03:31:13;3.25;;;0.73;;
32613;SDS011;19031;51.400;6.770;2023-03-31T03:33:39;2.95;;;0.75;;
32613;SDS011;19031;51.400;6.770;2023-03-31T03:36:05;3.50;;;0.50;;
32613;SDS011;19031;51.400;6.770;2023-03-31T03:38:31;4.93;;;1.25;;
32613;SDS011;19031;51.400;6.770;2023-03-31T03:40:57;5.18;;;1.30;;
32613;SDS011;19031;51.400;6.770;2023-03-31T03:43:23;7.95;;;1.02;;
32613;SDS011;19031;51.400;6.770;2023-03-31T03:45:49;8.20;;;0.93;;
32613;SDS011;19031;51.400;6.770;2023-03-31T03:48:15;2.42;;;0.90;;
32613;SDS011;19031;51.400;6.770;2023-03-31T03:50:41;4.13;;;1.10;;
32613;SDS011;19031;51.400;6.770;2023-03-31T03:53:07;6.22;;;0.88;;
32613;SDS011;19031;51.400;6.770;2023-03-31T03:55:33;4.75;;;0.70;;
32613;SDS011;19031;51.400;6.770;2023-03-31T03:57:58;8.27;;;0.80;;
32613;SDS011;19031;51.400;6.770;2023-03-31T04:00:24;6.82;;;1.15;;
32613;SDS011;19031;51.400;6.770;2023-03-31T04:02:50;2.75;;;1.00;;
32613;SDS011;19031;51.400;6.770;2023-03-31T04:05:15;2.97;;;0.65;;
32613;SDS011;19031;51.400;6.770;2023-03-31T04:07:41;4.53;;;1.20;;
32613;SDS011;19031;51.400;6.770;2023-03-31T04:10:07;3.67;;;0.90;;
32613;SDS011;19031;51.400;6.770;2023-03-31T04:12:34;8.27;;;0.80;;
32613;SDS011;19031;51.400;6.770;2023-03-31T04:15:00;4.03;;;1.40;;
32613;SDS011;19031;51.400;6.770;2023-03-31T04:17:26;2.90;;;0.85;;
32613;SDS011;19031;51.400;6.770;2023-03-31T04:20:17;2.83;;;0.90;;
32613;SDS011;19031;51.400;6.770;2023-03-31T04:22:42;8.57;;;0.83;;
32613;SDS011;19031;51.400;6.770;2023-03-31T04:25:11;7.05;;;1.23;;
32613;SDS011;19031;51.400;6.770;2023-03-31T04:27:45;5.65;;;1.23;;
32613;SDS011;19031;51.400;6.770;2023-03-31T04:30:14;7.90;;;0.95;;
32613;SDS011;19031;51.400;6.770;2023-03-31T04:32:47;4.72;;;0.95;;
32613;SDS011;19031;51.400;6.770;2023-03-31T04:35:19;4.47;;;0.88;;
32613;SDS011;19031;51.400;6.770;2023-03-31T04:37:46;9.02;;;0.95;;
32613;SDS011;19031;51.400;6.770;2023-03-31T04:40:13;7.57;;;1.60;;
32613;SDS011;19031;51.400;6.770;2023-03-31T04:42:40;3.65;;;0.90;;
32613;SDS011;19031;51.400;6.770;2023-03-31T04:45:06;9.13;;;1.38;;
32613;SDS011;19031;51.400;6.770;2023-03-31T04:47:32;4.97;;;1.48;;
32613;SDS011;19031;51.400;6.770;2023-03-31T04:49:58;2.88;;;0.55;;
32613;SDS011;19031;51.400;6.770;2023-03-31T04:52:24;7.57;;;1.20;;
32613;SDS011;19031;51.400;6.770;2023-03-31T04:54:50;3.97;;;1.05;;
32613;SDS011;19031;51.400;6.770;2023-03-31T04:57:15;3.20;;;1.40;;
32613;SDS011;19031;51.400;6.770;2023-03-31T04:59:41;1.67;;;0.52;;
32613;SDS011;19031;51.400;6.770;2023-03-31T05:02:06;3.65;;;0.80;;
32613;SDS011;19031;51.400;6.770;2023-03-31T05:04:32;4.60;;;0.70;;
32613;SDS011;19031;51.400;6.770;2023-03-31T05:06:57;7.85;;;1.80;;
32613;SDS011;19031;51.400;6.770;2023-03-31T05:09:23;11.38;;;1.60;;
32613;SDS011;19031;51.400;6.770;2023-03-31T05:11:49;2.78;;;0.88;;
32613;SDS011;19031;51.400;6.770;2023-03-31T05:14:15;7.28;;;1.35;;
32613;SDS011;19031;51.400;6.770;2023-03-31T05:16:41;5.97;;;0.98;;
32613;SDS011;19031;51.400;6.770;2023-03-31T05:19:07;2.08;;;0.85;;
32613;SDS011;19031;51.400;6.770;2023-03-31T05:21:32;3.28;;;1.08;;
32613;SDS011;19031;51.400;6.770;2023-03-31T05:23:58;3.05;;;0.95;;
32613;SDS011;19031;51.400;6.770;2023-03-31T05:26:24;4.78;;;0.80;;
32613;SDS011;19031;51.400;6.770;2023-03-31T05:28:50;5.93;;;1.02;;
32613;SDS011;19031;51.400;6.770;2023-03-31T05:31:16;3.85;;;1.17;;
32613;SDS011;19031;51.400;6.770;2023-03-31T05:33:42;5.30;;;0.88;;
32613;SDS011;19031;51.400;6.770;2023-03-31T05:36:11;6.65;;;1.17;;
32613;SDS011;19031;51.400;6.770;2023-03-31T05:38:39;0.65;;;0.40;;
32613;SDS011;19031;51.400;6.770;2023-03-31T05:41:05;1.42;;;0.50;;
32613;SDS011;19031;51.400;6.770;2023-03-31T05:43:33;6.65;;;1.10;;
32613;SDS011;19031;51.400;6.770;2023-03-31T05:45:59;2.67;;;0.63;;
32613;SDS011;19031;51.400;6.770;2023-03-31T05:48:25;1.08;;;0.63;;
32613;SDS011;19031;51.400;6.770;2023-03-31T05:50:54;4.15;;;0.82;;
32613;SDS011;19031;51.400;6.770;2023-03-31T05:53:24;3.20;;;0.75;;
32613;SDS011;19031;51.400;6.770;2023-03-31T05:55:55;2.08;;;0.73;;
32613;SDS011;19031;51.400;6.770;2023-03-31T05:58:22;1.38;;;0.50;;
32613;SDS011;19031;51.400;6.770;2023-03-31T06:00:48;1.05;;;0.50;;
32613;SDS011;19031;51.400;6.770;2023-03-31T06:03:13;1.98;;;0.60;;
32613;SDS011;19031;51.400;6.770;2023-03-31T06:05:39;3.22;;;0.95;;
32613;SDS011;19031;51.400;6.770;2023-03-31T06:08:11;2.05;;;0.55;;
32613;SDS011;19031;51.400;6.770;2023-03-31T06:10:37;3.35;;;0.50;;
32613;SDS011;19031;51.400;6.770;2023-03-31T06:13:02;5.78;;;0.60;;
32613;SDS011;19031;51.400;6.770;2023-03-31T06:15:28;3.75;;;0.80;;
32613;SDS011;19031;51.400;6.770;2023-03-31T06:17:53;2.83;;;0.70;;
32613;SDS011;19031;51.400;6.770;2023-03-31T06:20:19;14.63;;;1.42;;
32613;SDS011;19031;51.400;6.770;2023-03-31T06:22:45;2.90;;;0.95;;
32613;SDS011;19031;51.400;6.770;2023-03-31T06:25:10;7.35;;;1.40;;
32613;SDS011;19031;51.400;6.770;2023-03-31T06:27:36;2.38;;;1.27;;
32613;SDS011;19031;51.400;6.770;2023-03-31T06:30:01;6.07;;;1.52;;
32613;SDS011;19031;51.400;6.770;2023-03-31T06:32:27;5.13;;;2.03;;
32613;SDS011;19031;51.400;6.770;2023-03-31T06:34:53;1.55;;;0.90;;
32613;SDS011;19031;51.400;6.770;2023-03-31T06:37:18;2.42;;;0.65;;
32613;SDS011;19031;51.400;6.770;2023-03-31T06:39:44;2.85;;;1.17;;
32613;SDS011;19031;51.400;6.770;2023-03-31T06:42:09;6.38;;;1.17;;
32613;SDS011;19031;51.400;6.770;2023-03-31T06:44:35;1.42;;;0.73;;
32613;SDS011;19031;51.400;6.770;2023-03-31T06:47:01;1.05;;;0.57;;
32613;SDS011;19031;51.400;6.770;2023-03-31T06:49:26;6.40;;;0.93;;
32613;SDS011;19031;51.400;6.770;2023-03-31T06:51:52;3.80;;;0.90;;
32613;SDS011;19031;51.400;6.770;2023-03-31T06:54:17;4.20;;;0.85;;
32613;SDS011;19031;51.400;6.770;2023-03-31T06:56:43;2.72;;;0.40;;
32613;SDS011;19031;51.400;6.770;2023-03-31T06:59:08;4.57;;;0.80;;
32613;SDS011;19031;51.400;6.770;2023-03-31T07:01:34;0.75;;;0.45;;
32613;SDS011;19031;51.400;6.770;2023-03-31T07:04:01;2.95;;;0.47;;
32613;SDS011;19031;51.400;6.770;2023-03-31T07:06:27;0.85;;;0.50;;
32613;SDS011;19031;51.400;6.770;2023-03-31T07:08:53;3.65;;;0.63;;
32613;SDS011;19031;51.400;6.770;2023-03-31T07:11:18;10.45;;;1.45;;
32613;SDS011;19031;51.400;6.770;2023-03-31T07:13:44;4.10;;;1.02;;
32613;SDS011;19031;51.400;6.770;2023-03-31T07:16:10;1.92;;;0.82;;
32613;SDS011;19031;51.400;6.770;2023-03-31T07:18:38;4.85;;;1.15;;
32613;SDS011;19031;51.400;6.770;2023-03-31T07:21:06;3.25;;;1.48;;
32613;SDS011;19031;51.400;6.770;2023-03-31T07:23:32;5.18;;;1.20;;
32613;SDS011;19031;51.400;6.770;2023-03-31T07:25:58;11.77;;;2.45;;
32613;SDS011;19031;51.400;6.770;2023-03-31T07:28:26;9.82;;;3.22;;
32613;SDS011;19031;51.400;6.770;2023-03-31T07:30:53;5.72;;;2.63;;
32613;SDS011;19031;51.400;6.770;2023-03-31T07:33:18;7.07;;;3.45;;
32613;SDS011;19031;51.400;6.770;2023-03-31T07:35:44;19.00;;;7.40;;
32613;SDS011;19031;51.400;6.770;2023-03-31T07:38:10;18.02;;;7.22;;
32613;SDS011;19031;51.400;6.770;2023-03-31T07:40:37;9.30;;;3.85;;
32613;SDS011;19031;51.400;6.770;2023-03-31T07:43:03;11.55;;;3.50;;
32613;SDS011;19031;51.400;6.770;2023-03-31T07:45:30;6.05;;;2.50;;
32613;SDS011;19031;51.400;6.770;2023-03-31T07:47:56;3.88;;;1.50;;
32613;SDS011;19031;51.400;6.770;2023-03-31T07:50:22;2.45;;;0.90;;
32613;SDS011;19031;51.400;6.770;2023-03-31T07:52:49;2.75;;;1.05;;
32613;SDS011;19031;51.400;6.770;2023-03-31T07:55:15;2.40;;;1.00;;
32613;SDS011;19031;51.400;6.770;2023-03-31T07:57:41;4.97;;;1.05;;
32613;SDS011;19031;51.400;6.770;2023-03-31T08:00:08;6.43;;;1.17;;
32613;SDS011;19031;51.400;6.770;2023-03-31T08:02:36;3.45;;;1.40;;
32613;SDS011;19031;51.400;6.770;2023-03-31T08:05:02;1.50;;;0.55;;
32613;SDS011;19031;51.400;6.770;2023-03-31T08:07:32;3.72;;;0.98;;
32613;SDS011;19031;51.400;6.770;2023-03-31T08:09:58;3.97;;;1.17;;
32613;SDS011;19031;51.400;6.770;2023-03-31T08:12:24;2.58;;;1.08;;
32613;SDS011;19031;51.400;6.770;2023-03-31T08:14:50;6.22;;;2.33;;
32613;SDS011;19031;51.400;6.770;2023-03-31T08:17:15;2.83;;;0.90;;
32613;SDS011;19031;51.400;6.770;2023-03-31T08:19:41;2.90;;;1.15;;
32613;SDS011;19031;51.400;6.770;2023-03-31T08:22:06;9.65;;;3.22;;
32613;SDS011;19031;51.400;6.770;2023-03-31T08:24:32;14.88;;;5.78;;
32613;SDS011;19031;51.400;6.770;2023-03-31T08:26:58;7.35;;;3.17;;
32613;SDS011;19031;51.400;6.770;2023-03-31T08:29:23;4.43;;;1.95;;
32613;SDS011;19031;51.400;6.770;2023-03-31T08:31:49;6.55;;;1.38;;
32613;SDS011;19031;51.400;6.770;2023-03-31T08:34:15;3.10;;;0.90;;
32613;SDS011;19031;51.400;6.770;2023-03-31T08:36:40;4.03;;;0.77;;
32613;SDS011;19031;51.400;6.770;2023-03-31T08:39:06;2.67;;;0.70;;
32613;SDS011;19031;51.400;6.770;2023-03-31T08:41:39;2.33;;;0.75;;
32613;SDS011;19031;51.400;6.770;2023-03-31T08:44:31;3.60;;;0.60;;
32613;SDS011;19031;51.400;6.770;2023-03-31T08:47:15;6.30;;;0.70;;
32613;SDS011;19031;51.400;6.770;2023-03-31T08:49:48;5.47;;;0.98;;
32613;SDS011;19031;51.400;6.770;2023-03-31T08:52:22;1.45;;;0.70;;
32613;SDS011;19031;51.400;6.770;2023-03-31T08:54:57;4.15;;;0.77;;
32613;SDS011;19031;51.400;6.770;2023-03-31T08:57:25;2.13;;;0.65;;
32613;SDS011;19031;51.400;6.770;2023-03-31T08:59:56;5.45;;;1.10;;
32613;SDS011;19031;51.400;6.770;2023-03-31T09:02:37;7.70;;;0.90;;
32613;SDS011;19031;51.400;6.770;2023-03-31T09:05:19;3.95;;;1.30;;
32613;SDS011;19031;51.400;6.770;2023-03-31T09:16:13;4.95;;;0.98;;
32613;SDS011;19031;51.400;6.770;2023-03-31T09:18:40;1.98;;;0.43;;
32613;SDS011;19031;51.400;6.770;2023-03-31T09:23:39;6.35;;;0.85;;
32613;SDS011;19031;51.400;6.770;2023-03-31T09:26:13;6.65;;;1.13;;
32613;SDS011;19031;51.400;6.770;2023-03-31T09:28:48;3.55;;;0.88;;
32613;SDS011;19031;51.400;6.770;2023-03-31T09:31:16;4.78;;;0.82;;
32613;SDS011;19031;51.400;6.770;2023-03-31T09:33:45;5.68;;;1.10;;
32613;SDS011;19031;51.400;6.770;2023-03-31T09:36:18;6.03;;;0.80;;
32613;SDS011;19031;51.400;6.770;2023-03-31T09:38:46;4.55;;;0.75;;
32613;SDS011;19031;51.400;6.770;2023-03-31T09:41:13;11.02;;;1.02;;
32613;SDS011;19031;51.400;6.770;2023-03-31T09:43:40;5.57;;;0.80;;
32613;SDS011;19031;51.400;6.770;2023-03-31T09:46:23;3.95;;;0.88;;
32613;SDS011;19031;51.400;6.770;2023-03-31T09:48:56;1.40;;;0.65;;
32613;SDS011;19031;51.400;6.770;2023-03-31T09:51:31;1.70;;;0.50;;
32613;SDS011;19031;51.400;6.770;2023-03-31T09:57:11;8.25;;;0.82;;
32613;SDS011;19031;51.400;6.770;2023-03-31T09:59:49;8.17;;;1.03;;
32613;SDS011;19031;51.400;6.770;2023-03-31T10:04:56;5.75;;;1.05;;
32613;SDS011;19031;51.400;6.770;2023-03-31T10:07:22;9.20;;;1.20;;
32613;SDS011;19031;51.400;6.770;2023-03-31T10:09:49;8.40;;;1.42;;
32613;SDS011;19031;51.400;6.770;2023-03-31T10:12:17;2.80;;;0.90;;
32613;SDS011;19031;51.400;6.770;2023-03-31T10:14:48;8.32;;;1.95;;
32613;SDS011;19031;51.400;6.770;2023-03-31T10:17:26;5.32;;;1.17;;
32613;SDS011;19031;51.400;6.770;2023-03-31T10:19:57;3.33;;;1.60;;
32613;SDS011;19031;51.400;6.770;2023-03-31T10:22:30;6.18;;;0.80;;
32613;SDS011;19031;51.400;6.770;2023-03-31T10:25:16;3.63;;;0.70;;
32613;SDS011;19031;51.400;6.770;2023-03-31T10:27:46;9.10;;;1.65;;
32613;SDS011;19031;51.400;6.770;2023-03-31T10:30:23;12.50;;;2.38;;
32613;SDS011;19031;51.400;6.770;2023-03-31T10:32:52;8.38;;;1.88;;
32613;SDS011;19031;51.400;6.770;2023-03-31T10:37:58;5.32;;;1.50;;
32613;SDS011;19031;51.400;6.770;2023-03-31T10:40:30;8.13;;;2.15;;
32613;SDS011;19031;51.400;6.770;2023-03-31T10:42:57;7.07;;;1.63;;
32613;SDS011;19031;51.400;6.770;2023-03-31T10:45:25;8.73;;;2.22;;
32613;SDS011;19031;51.400;6.770;2023-03-31T10:47:53;15.77;;;2.65;;
32613;SDS011;19031;51.400;6.770;2023-03-31T10:50:34;12.25;;;1.55;;
32613;SDS011;19031;51.400;6.770;2023-03-31T10:53:01;5.05;;;1.25;;
32613;SDS011;19031;51.400;6.770;2023-03-31T10:58:18;4.50;;;0.93;;
32613;SDS011;19031;51.400;6.770;2023-03-31T11:01:27;6.93;;;1.20;;
32613;SDS011;19031;51.400;6.770;2023-03-31T11:06:51;2.10;;;0.85;;
32613;SDS011;19031;51.400;6.770;2023-03-31T11:12:44;3.33;;;0.70;;
32613;SDS011;19031;51.400;6.770;2023-03-31T11:15:50;6.63;;;0.90;;
32613;SDS011;19031;51.400;6.770;2023-03-31T11:21:27;2.58;;;0.68;;
32613;SDS011;19031;51.400;6.770;2023-03-31T11:24:27;4.78;;;0.68;;
32613;SDS011;19031;51.400;6.770;2023-03-31T11:27:21;4.63;;;0.70;;
32613;SDS011;19031;51.400;6.770;2023-03-31T11:37:57;5.50;;;1.95;;
32613;SDS011;19031;51.400;6.770;2023-03-31T11:43:23;2.65;;;1.00;;
32613;SDS011;19031;51.400;6.770;2023-03-31T11:46:06;5.10;;;1.27;;
32613;SDS011;19031;51.400;6.770;2023-03-31T11:48:40;3.28;;;0.93;;
32613;SDS011;19031;51.400;6.770;2023-03-31T11:51:32;2.70;;;0.97;;
32613;SDS011;19031;51.400;6.770;2023-03-31T11:54:05;3.67;;;0.80;;
32613;SDS011;19031;51.400;6.770;2023-03-31T11:56:37;2.10;;;0.68;;
32613;SDS011;19031;51.400;6.770;2023-03-31T11:59:05;2.58;;;0.65;;
32613;SDS011;19031;51.400;6.770;2023-03-31T12:15:39;2.53;;;0.80;;
32613;SDS011;19031;51.400;6.770;2023-03-31T12:18:10;3.30;;;0.80;;
32613;SDS011;19031;51.400;6.770;2023-03-31T12:20:46;10.23;;;2.17;;
32613;SDS011;19031;51.400;6.770;2023-03-31T12:23:19;5.53;;;1.10;;
32613;SDS011;19031;51.400;6.770;2023-03-31T12:26:00;4.95;;;0.90;;
32613;SDS011;19031;51.400;6.770;2023-03-31T12:28:31;4.35;;;0.90;;
32613;SDS011;19031;51.400;6.770;2023-03-31T12:31:01;6.97;;;1.25;;
32613;SDS011;19031;51.400;6.770;2023-03-31T12:33:33;2.75;;;0.90;;
32613;SDS011;19031;51.400;6.770;2023-03-31T12:41:59;6.73;;;1.00;;
32613;SDS011;19031;51.400;6.770;2023-03-31T12:50:08;1.83;;;0.85;;
32613;SDS011;19031;51.400;6.770;2023-03-31T12:55:55;7.03;;;1.30;;
32613;SDS011;19031;51.400;6.770;2023-03-31T13:01:04;5.72;;;1.02;;
32613;SDS011;19031;51.400;6.770;2023-03-31T13:05:58;13.57;;;2.10;;
32613;SDS011;19031;51.400;6.770;2023-03-31T13:11:13;10.98;;;2.83;;
32613;SDS011;19031;51.400;6.770;2023-03-31T13:13:43;5.75;;;1.50;;
32613;SDS011;19031;51.400;6.770;2023-03-31T13:16:16;6.57;;;1.05;;
32613;SDS011;19031;51.400;6.770;2023-03-31T13:18:48;2.83;;;0.57;;
32613;SDS011;19031;51.400;6.770;2023-03-31T13:21:18;6.43;;;1.20;;
32613;SDS011;19031;51.400;6.770;2023-03-31T13:23:45;5.15;;;0.70;;
32613;SDS011;19031;51.400;6.770;2023-03-31T14:00:27;3.83;;;1.17;;
32613;SDS011;19031;51.400;6.770;2023-03-31T14:05:39;3.15;;;1.13;;
32613;SDS011;19031;51.400;6.770;2023-03-31T14:08:10;3.33;;;0.98;;
32613;SDS011;19031;51.400;6.770;2023-03-31T14:10:39;2.88;;;0.57;;
32613;SDS011;19031;51.400;6.770;2023-03-31T14:13:18;1.55;;;0.60;;
32613;SDS011;19031;51.400;6.770;2023-03-31T14:15:50;3.20;;;0.50;;
32613;SDS011;19031;51.400;6.770;2023-03-31T14:18:23;4.75;;;1.08;;
32613;SDS011;19031;51.400;6.770;2023-03-31T14:20:57;1.45;;;0.60;;
32613;SDS011;19031;51.400;6.770;2023-03-31T14:26:32;2.75;;;0.63;;
32613;SDS011;19031;51.400;6.770;2023-03-31T14:37:11;5.75;;;1.33;;
32613;SDS011;19031;51.400;6.770;2023-03-31T14:39:43;4.90;;;1.00;;
32613;SDS011;19031;51.400;6.770;2023-03-31T14:42:12;4.55;;;1.23;;
32613;SDS011;19031;51.400;6.770;2023-03-31T14:44:56;3.10;;;0.57;;
32613;SDS011;19031;51.400;6.770;2023-03-31T14:47:26;3.50;;;0.60;;
32613;SDS011;19031;51.400;6.770;2023-03-31T14:52:48;2.72;;;1.20;;
32613;SDS011;19031;51.400;6.770;2023-03-31T14:55:16;4.47;;;0.50;;
32613;SDS011;19031;51.400;6.770;2023-03-31T14:57:46;2.13;;;0.82;;
32613;SDS011;19031;51.400;6.770;2023-03-31T15:00:15;5.03;;;0.70;;
32613;SDS011;19031;51.400;6.770;2023-03-31T15:02:48;3.70;;;0.77;;
32613;SDS011;19031;51.400;6.770;2023-03-31T15:05:20;1.33;;;0.55;;
32613;SDS011;19031;51.400;6.770;2023-03-31T15:08:35;3.83;;;0.63;;
32613;SDS011;19031;51.400;6.770;2023-03-31T15:10:44;6.72;;;1.50;;
32613;SDS011;19031;51.400;6.770;2023-03-31T15:13:18;3.72;;;0.75;;
32613;SDS011;19031;51.400;6.770;2023-03-31T15:15:48;10.93;;;1.38;;
32613;SDS011;19031;51.400;6.770;2023-03-31T15:18:14;8.45;;;2.28;;
32613;SDS011;19031;51.400;6.770;2023-03-31T15:20:41;5.40;;;1.40;;
32613;SDS011;19031;51.400;6.770;2023-03-31T15:23:24;2.47;;;0.60;;
32613;SDS011;19031;51.400;6.770;2023-03-31T15:25:57;6.25;;;0.60;;
32613;SDS011;19031;51.400;6.770;2023-03-31T15:28:26;3.30;;;1.13;;
32613;SDS011;19031;51.400;6.770;2023-03-31T15:30:58;1.73;;;0.50;;
32613;SDS011;19031;51.400;6.770;2023-03-31T15:33:30;4.63;;;1.00;;
32613;SDS011;19031;51.400;6.770;2023-03-31T15:35:57;6.93;;;1.40;;
32613;SDS011;19031;51.400;6.770;2023-03-31T15:38:26;3.83;;;0.85;;
32613;SDS011;19031;51.400;6.770;2023-03-31T15:40:55;8.10;;;0.68;;
32613;SDS011;19031;51.400;6.770;2023-03-31T15:43:29;3.70;;;0.40;;
32613;SDS011;19031;51.400;6.770;2023-03-31T15:46:00;1.15;;;0.45;;
32613;SDS011;19031;51.400;6.770;2023-03-31T15:51:16;1.15;;;0.47;;
32613;SDS011;19031;51.400;6.770;2023-03-31T15:53:48;4.28;;;0.80;;
32613;SDS011;19031;51.400;6.770;2023-03-31T15:59:03;2.03;;;0.55;;
32613;SDS011;19031;51.400;6.770;2023-03-31T16:01:31;2.25;;;0.70;;
32613;SDS011;19031;51.400;6.770;2023-03-31T16:04:09;1.10;;;0.43;;
32613;SDS011;19031;51.400;6.770;2023-03-31T16:09:11;1.50;;;0.70;;
32613;SDS011;19031;51.400;6.770;2023-03-31T16:11:46;1.35;;;0.40;;
32613;SDS011;19031;51.400;6.770;2023-03-31T16:17:04;4.15;;;0.50;;
32613;SDS011;19031;51.400;6.770;2023-03-31T16:19:53;2.38;;;0.30;;
32613;SDS011;19031;51.400;6.770;2023-03-31T16:22:25;4.50;;;0.93;;
32613;SDS011;19031;51.400;6.770;2023-03-31T16:25:01;0.57;;;0.20;;
32613;SDS011;19031;51.400;6.770;2023-03-31T16:27:35;3.88;;;0.65;;
32613;SDS011;19031;51.400;6.770;2023-03-31T16:30:11;4.63;;;0.82;;
32613;SDS011;19031;51.400;6.770;2023-03-31T16:32:53;5.03;;;0.77;;
32613;SDS011;19031;51.400;6.770;2023-03-31T16:35:33;2.22;;;0.38;;
32613;SDS011;19031;51.400;6.770;2023-03-31T16:38:01;0.85;;;0.32;;
32613;SDS011;19031;51.400;6.770;2023-03-31T16:40:29;1.40;;;0.40;;
32613;SDS011;19031;51.400;6.770;2023-03-31T16:43:07;6.68;;;0.95;;
32613;SDS011;19031;51.400;6.770;2023-03-31T16:45:38;7.88;;;0.80;;
32613;SDS011;19031;51.400;6.770;2023-03-31T16:48:05;2.03;;;0.50;;
32613;SDS011;19031;51.400;6.770;2023-03-31T16:50:30;3.17;;;0.88;;
32613;SDS011;19031;51.400;6.770;2023-03-31T16:52:56;0.75;;;0.40;;
32613;SDS011;19031;51.400;6.770;2023-03-31T16:55:22;3.85;;;1.27;;
32613;SDS011;19031;51.400;6.770;2023-03-31T16:57:48;2.85;;;0.75;;
32613;SDS011;19031;51.400;6.770;2023-03-31T17:00:14;5.13;;;1.58;;
32613;SDS011;19031;51.400;6.770;2023-03-31T17:02:40;5.25;;;1.52;;
32613;SDS011;19031;51.400;6.770;2023-03-31T17:05:06;5.53;;;1.38;;
32613;SDS011;19031;51.400;6.770;2023-03-31T17:07:31;2.50;;;0.77;;
32613;SDS011;19031;51.400;6.770;2023-03-31T17:09:57;1.30;;;0.47;;
32613;SDS011;19031;51.400;6.770;2023-03-31T17:12:23;0.45;;;0.25;;
32613;SDS011;19031;51.400;6.770;2023-03-31T17:14:48;6.60;;;0.80;;
32613;SDS011;19031;51.400;6.770;2023-03-31T17:17:14;1.13;;;0.20;;
32613;SDS011;19031;51.400;6.770;2023-03-31T17:19:40;1.42;;;0.40;;
32613;SDS011;19031;51.400;6.770;2023-03-31T17:22:05;0.80;;;0.32;;
32613;SDS011;19031;51.400;6.770;2023-03-31T17:24:31;0.95;;;0.40;;
32613;SDS011;19031;51.400;6.770;2023-03-31T17:26:57;2.13;;;0.52;;
32613;SDS011;19031;51.400;6.770;2023-03-31T17:29:22;4.10;;;0.75;;
32613;SDS011;19031;51.400;6.770;2023-03-31T17:31:48;1.92;;;0.75;;
32613;SDS011;19031;51.400;6.770;2023-03-31T17:34:14;1.98;;;0.80;;
32613;SDS011;19031;51.400;6.770;2023-03-31T17:36:41;3.03;;;0.50;;
32613;SDS011;19031;51.400;6.770;2023-03-31T17:39:08;3.88;;;0.50;;
32613;SDS011;19031;51.400;6.770;2023-03-31T17:41:34;1.45;;;0.68;;
32613;SDS011;19031;51.400;6.770;2023-03-31T17:44:00;2.60;;;0.70;;
32613;SDS011;19031;51.400;6.770;2023-03-31T17:46:26;1.15;;;0.40;;
32613;SDS011;19031;51.400;6.770;2023-03-31T17:48:52;0.73;;;0.32;;
32613;SDS011;19031;51.400;6.770;2023-03-31T17:51:18;4.68;;;0.45;;
32613;SDS011;19031;51.400;6.770;2023-03-31T17:53:45;1.85;;;0.55;;
32613;SDS011;19031;51.400;6.770;2023-03-31T17:56:12;1.60;;;0.68;;
32613;SDS011;19031;51.400;6.770;2023-03-31T17:58:38;1.63;;;0.43;;
32613;SDS011;19031;51.400;6.770;2023-03-31T18:01:04;3.80;;;0.70;;
32613;SDS011;19031;51.400;6.770;2023-03-31T18:03:31;2.28;;;0.40;;
32613;SDS011;19031;51.400;6.770;2023-03-31T18:06:04;1.90;;;0.70;;
32613;SDS011;19031;51.400;6.770;2023-03-31T18:08:32;3.28;;;1.23;;
32613;SDS011;19031;51.400;6.770;2023-03-31T18:10:59;5.65;;;1.00;;
32613;SDS011;19031;51.400;6.770;2023-03-31T18:13:25;5.00;;;1.75;;
32613;SDS011;19031;51.400;6.770;2023-03-31T18:15:51;4.68;;;0.90;;
32613;SDS011;19031;51.400;6.770;2023-03-31T18:18:17;2.28;;;0.60;;